<?xml version="1.0" encoding="UTF-8" standalone="no" ?>
<gpx xmlns="http://www.topografix.com/GPX/1/1" xmlns:xsi="http://www.w3.org/2001/XMLSchema-instance" xsi:schemaLocation="http://www.topografix.com/GPX/1/1 http://www.topografix.com/GPX/1/1/gpx.xsd" version="1.1" creator="VisuGPX - https://www.visugpx.com">
  <metadata>
    <name>12982253-6 piquet le tablier</name>
  </metadata>
  <trk>
    <name><![CDATA[12982253-6 piquet le tablier]]></name>
    <trkseg>
      <trkpt lat="46.54605" lon="-1.33363">
        <ele>28</ele>
        <time>2021-05-02T17:25:49Z</time>
      </trkpt>
      <trkpt lat="46.54603" lon="-1.33376">
        <ele>27</ele>
        <time>2021-05-02T17:26:01Z</time>
      </trkpt>
      <trkpt lat="46.54585" lon="-1.33382">
        <ele>24</ele>
        <time>2021-05-02T17:26:26Z</time>
      </trkpt>
      <trkpt lat="46.54549" lon="-1.33365">
        <ele>21</ele>
        <time>2021-05-02T17:27:16Z</time>
      </trkpt>
      <trkpt lat="46.545" lon="-1.33331">
        <ele>15</ele>
        <time>2021-05-02T17:28:29Z</time>
      </trkpt>
      <trkpt lat="46.54495" lon="-1.33357">
        <ele>16</ele>
        <time>2021-05-02T17:28:54Z</time>
      </trkpt>
      <trkpt lat="46.54485" lon="-1.33371">
        <ele>17</ele>
        <time>2021-05-02T17:29:12Z</time>
      </trkpt>
      <trkpt lat="46.54468" lon="-1.33373">
        <ele>19</ele>
        <time>2021-05-02T17:29:35Z</time>
      </trkpt>
      <trkpt lat="46.54458" lon="-1.33315">
        <ele>18</ele>
        <time>2021-05-02T17:30:30Z</time>
      </trkpt>
      <trkpt lat="46.54452" lon="-1.33234">
        <ele>16</ele>
        <time>2021-05-02T17:31:45Z</time>
      </trkpt>
      <trkpt lat="46.54443" lon="-1.33193">
        <ele>16</ele>
        <time>2021-05-02T17:32:24Z</time>
      </trkpt>
      <trkpt lat="46.54422" lon="-1.33149">
        <ele>15</ele>
        <time>2021-05-02T17:33:13Z</time>
      </trkpt>
      <trkpt lat="46.54396" lon="-1.33123">
        <ele>18</ele>
        <time>2021-05-02T17:33:55Z</time>
      </trkpt>
      <trkpt lat="46.54378" lon="-1.33111">
        <ele>21</ele>
        <time>2021-05-02T17:34:22Z</time>
      </trkpt>
      <trkpt lat="46.5436" lon="-1.33108">
        <ele>22</ele>
        <time>2021-05-02T17:34:46Z</time>
      </trkpt>
      <trkpt lat="46.54338" lon="-1.33115">
        <ele>21</ele>
        <time>2021-05-02T17:35:16Z</time>
      </trkpt>
      <trkpt lat="46.54316" lon="-1.33131">
        <ele>19</ele>
        <time>2021-05-02T17:35:49Z</time>
      </trkpt>
      <trkpt lat="46.54301" lon="-1.33161">
        <ele>14</ele>
        <time>2021-05-02T17:36:23Z</time>
      </trkpt>
      <trkpt lat="46.54293" lon="-1.33167">
        <ele>13</ele>
        <time>2021-05-02T17:36:35Z</time>
      </trkpt>
      <trkpt lat="46.54278" lon="-1.3317">
        <ele>12</ele>
        <time>2021-05-02T17:36:55Z</time>
      </trkpt>
      <trkpt lat="46.54257" lon="-1.33166">
        <ele>11</ele>
        <time>2021-05-02T17:37:23Z</time>
      </trkpt>
      <trkpt lat="46.54197" lon="-1.33123">
        <ele>15</ele>
        <time>2021-05-02T17:38:53Z</time>
      </trkpt>
      <trkpt lat="46.54177" lon="-1.33094">
        <ele>14</ele>
        <time>2021-05-02T17:39:30Z</time>
      </trkpt>
      <trkpt lat="46.54177" lon="-1.33068">
        <ele>15</ele>
        <time>2021-05-02T17:39:54Z</time>
      </trkpt>
      <trkpt lat="46.54194" lon="-1.33014">
        <ele>17</ele>
        <time>2021-05-02T17:40:49Z</time>
      </trkpt>
      <trkpt lat="46.54235" lon="-1.32949">
        <ele>20</ele>
        <time>2021-05-02T17:42:10Z</time>
      </trkpt>
      <trkpt lat="46.54265" lon="-1.32932">
        <ele>20</ele>
        <time>2021-05-02T17:42:53Z</time>
      </trkpt>
      <trkpt lat="46.54397" lon="-1.32892">
        <ele>30</ele>
        <time>2021-05-02T17:45:53Z</time>
      </trkpt>
      <trkpt lat="46.54432" lon="-1.32877">
        <ele>32</ele>
        <time>2021-05-02T17:46:41Z</time>
      </trkpt>
      <trkpt lat="46.54454" lon="-1.32862">
        <ele>34</ele>
        <time>2021-05-02T17:47:14Z</time>
      </trkpt>
      <trkpt lat="46.54536" lon="-1.32848">
        <ele>39</ele>
        <time>2021-05-02T17:49:04Z</time>
      </trkpt>
      <trkpt lat="46.54611" lon="-1.32808">
        <ele>43</ele>
        <time>2021-05-02T17:50:50Z</time>
      </trkpt>
      <trkpt lat="46.54696" lon="-1.32775">
        <ele>45</ele>
        <time>2021-05-02T17:52:48Z</time>
      </trkpt>
      <trkpt lat="46.54683" lon="-1.32723">
        <ele>45</ele>
        <time>2021-05-02T17:53:39Z</time>
      </trkpt>
      <trkpt lat="46.5468" lon="-1.32693">
        <ele>45</ele>
        <time>2021-05-02T17:54:06Z</time>
      </trkpt>
      <trkpt lat="46.54683" lon="-1.32522">
        <ele>39</ele>
        <time>2021-05-02T17:56:43Z</time>
      </trkpt>
      <trkpt lat="46.54681" lon="-1.32488">
        <ele>38</ele>
        <time>2021-05-02T17:57:15Z</time>
      </trkpt>
      <trkpt lat="46.5466" lon="-1.32407">
        <ele>37</ele>
        <time>2021-05-02T17:58:34Z</time>
      </trkpt>
      <trkpt lat="46.54641" lon="-1.32278">
        <ele>33</ele>
        <time>2021-05-02T18:00:35Z</time>
      </trkpt>
      <trkpt lat="46.54642" lon="-1.3227">
        <ele>33</ele>
        <time>2021-05-02T18:00:43Z</time>
      </trkpt>
      <trkpt lat="46.54619" lon="-1.32252">
        <ele>32</ele>
        <time>2021-05-02T18:01:18Z</time>
      </trkpt>
      <trkpt lat="46.5459" lon="-1.32195">
        <ele>29</ele>
        <time>2021-05-02T18:02:23Z</time>
      </trkpt>
      <trkpt lat="46.5457" lon="-1.32143">
        <ele>27</ele>
        <time>2021-05-02T18:03:17Z</time>
      </trkpt>
      <trkpt lat="46.54559" lon="-1.32092">
        <ele>27</ele>
        <time>2021-05-02T18:04:06Z</time>
      </trkpt>
      <trkpt lat="46.54568" lon="-1.32054">
        <ele>27</ele>
        <time>2021-05-02T18:04:43Z</time>
      </trkpt>
      <trkpt lat="46.54568" lon="-1.32038">
        <ele>28</ele>
        <time>2021-05-02T18:04:58Z</time>
      </trkpt>
      <trkpt lat="46.54551" lon="-1.31996">
        <ele>29</ele>
        <time>2021-05-02T18:05:43Z</time>
      </trkpt>
      <trkpt lat="46.54503" lon="-1.31923">
        <ele>32</ele>
        <time>2021-05-02T18:07:15Z</time>
      </trkpt>
      <trkpt lat="46.5442" lon="-1.31827">
        <ele>40</ele>
        <time>2021-05-02T18:09:37Z</time>
      </trkpt>
      <trkpt lat="46.54353" lon="-1.31713">
        <ele>46</ele>
        <time>2021-05-02T18:11:55Z</time>
      </trkpt>
      <trkpt lat="46.54319" lon="-1.31638">
        <ele>51</ele>
        <time>2021-05-02T18:13:17Z</time>
      </trkpt>
      <trkpt lat="46.54289" lon="-1.31729">
        <ele>48</ele>
        <time>2021-05-02T18:14:50Z</time>
      </trkpt>
      <trkpt lat="46.54274" lon="-1.31764">
        <ele>47</ele>
        <time>2021-05-02T18:15:27Z</time>
      </trkpt>
      <trkpt lat="46.54264" lon="-1.31805">
        <ele>47</ele>
        <time>2021-05-02T18:16:07Z</time>
      </trkpt>
      <trkpt lat="46.54229" lon="-1.31914">
        <ele>49</ele>
        <time>2021-05-02T18:17:58Z</time>
      </trkpt>
      <trkpt lat="46.54226" lon="-1.31943">
        <ele>48</ele>
        <time>2021-05-02T18:18:25Z</time>
      </trkpt>
      <trkpt lat="46.54229" lon="-1.31953">
        <ele>48</ele>
        <time>2021-05-02T18:18:35Z</time>
      </trkpt>
      <trkpt lat="46.5424" lon="-1.31965">
        <ele>47</ele>
        <time>2021-05-02T18:18:53Z</time>
      </trkpt>
      <trkpt lat="46.54272" lon="-1.3199">
        <ele>44</ele>
        <time>2021-05-02T18:19:42Z</time>
      </trkpt>
      <trkpt lat="46.54276" lon="-1.32015">
        <ele>43</ele>
        <time>2021-05-02T18:20:05Z</time>
      </trkpt>
      <trkpt lat="46.54218" lon="-1.32246">
        <ele>43</ele>
        <time>2021-05-02T18:23:51Z</time>
      </trkpt>
      <trkpt lat="46.54218" lon="-1.32277">
        <ele>43</ele>
        <time>2021-05-02T18:24:19Z</time>
      </trkpt>
      <trkpt lat="46.54236" lon="-1.32333">
        <ele>41</ele>
        <time>2021-05-02T18:25:16Z</time>
      </trkpt>
      <trkpt lat="46.54271" lon="-1.32348">
        <ele>38</ele>
        <time>2021-05-02T18:26:05Z</time>
      </trkpt>
      <trkpt lat="46.54276" lon="-1.32354">
        <ele>38</ele>
        <time>2021-05-02T18:26:13Z</time>
      </trkpt>
      <trkpt lat="46.54278" lon="-1.32379">
        <ele>38</ele>
        <time>2021-05-02T18:26:36Z</time>
      </trkpt>
      <trkpt lat="46.54285" lon="-1.32412">
        <ele>37</ele>
        <time>2021-05-02T18:27:08Z</time>
      </trkpt>
      <trkpt lat="46.54282" lon="-1.32426">
        <ele>36</ele>
        <time>2021-05-02T18:27:22Z</time>
      </trkpt>
      <trkpt lat="46.54277" lon="-1.32432">
        <ele>36</ele>
        <time>2021-05-02T18:27:30Z</time>
      </trkpt>
      <trkpt lat="46.54255" lon="-1.32427">
        <ele>39</ele>
        <time>2021-05-02T18:28:00Z</time>
      </trkpt>
      <trkpt lat="46.54244" lon="-1.32432">
        <ele>39</ele>
        <time>2021-05-02T18:28:15Z</time>
      </trkpt>
      <trkpt lat="46.5423" lon="-1.32477">
        <ele>38</ele>
        <time>2021-05-02T18:29:01Z</time>
      </trkpt>
      <trkpt lat="46.54187" lon="-1.32576">
        <ele>36</ele>
        <time>2021-05-02T18:30:48Z</time>
      </trkpt>
      <trkpt lat="46.54129" lon="-1.32691">
        <ele>39</ele>
        <time>2021-05-02T18:32:59Z</time>
      </trkpt>
      <trkpt lat="46.5412" lon="-1.32697">
        <ele>39</ele>
        <time>2021-05-02T18:33:12Z</time>
      </trkpt>
      <trkpt lat="46.54109" lon="-1.32693">
        <ele>40</ele>
        <time>2021-05-02T18:33:27Z</time>
      </trkpt>
      <trkpt lat="46.54099" lon="-1.32681">
        <ele>41</ele>
        <time>2021-05-02T18:33:45Z</time>
      </trkpt>
      <trkpt lat="46.54083" lon="-1.32673">
        <ele>43</ele>
        <time>2021-05-02T18:34:07Z</time>
      </trkpt>
      <trkpt lat="46.54046" lon="-1.32678">
        <ele>43</ele>
        <time>2021-05-02T18:34:57Z</time>
      </trkpt>
      <trkpt lat="46.5402" lon="-1.32697">
        <ele>42</ele>
        <time>2021-05-02T18:35:36Z</time>
      </trkpt>
      <trkpt lat="46.53995" lon="-1.32738">
        <ele>40</ele>
        <time>2021-05-02T18:36:26Z</time>
      </trkpt>
      <trkpt lat="46.53976" lon="-1.32881">
        <ele>33</ele>
        <time>2021-05-02T18:38:40Z</time>
      </trkpt>
      <trkpt lat="46.53903" lon="-1.3303">
        <ele>19</ele>
        <time>2021-05-02T18:41:28Z</time>
      </trkpt>
      <trkpt lat="46.53865" lon="-1.33123">
        <ele>11</ele>
        <time>2021-05-02T18:43:07Z</time>
      </trkpt>
      <trkpt lat="46.53856" lon="-1.33135">
        <ele>11</ele>
        <time>2021-05-02T18:43:23Z</time>
      </trkpt>
      <trkpt lat="46.53855" lon="-1.33147">
        <ele>10</ele>
        <time>2021-05-02T18:43:34Z</time>
      </trkpt>
      <trkpt lat="46.5386" lon="-1.3316">
        <ele>10</ele>
        <time>2021-05-02T18:43:48Z</time>
      </trkpt>
      <trkpt lat="46.539" lon="-1.33153">
        <ele>10</ele>
        <time>2021-05-02T18:44:42Z</time>
      </trkpt>
      <trkpt lat="46.53908" lon="-1.33166">
        <ele>9</ele>
        <time>2021-05-02T18:44:58Z</time>
      </trkpt>
      <trkpt lat="46.53922" lon="-1.33177">
        <ele>9</ele>
        <time>2021-05-02T18:45:19Z</time>
      </trkpt>
      <trkpt lat="46.53916" lon="-1.33192">
        <ele>10</ele>
        <time>2021-05-02T18:45:35Z</time>
      </trkpt>
      <trkpt lat="46.53913" lon="-1.33235">
        <ele>11</ele>
        <time>2021-05-02T18:46:15Z</time>
      </trkpt>
      <trkpt lat="46.53925" lon="-1.33237">
        <ele>12</ele>
        <time>2021-05-02T18:46:31Z</time>
      </trkpt>
      <trkpt lat="46.53947" lon="-1.33252">
        <ele>16</ele>
        <time>2021-05-02T18:47:03Z</time>
      </trkpt>
      <trkpt lat="46.53984" lon="-1.33253">
        <ele>22</ele>
        <time>2021-05-02T18:47:53Z</time>
      </trkpt>
      <trkpt lat="46.53949" lon="-1.33319">
        <ele>22</ele>
        <time>2021-05-02T18:49:09Z</time>
      </trkpt>
      <trkpt lat="46.53902" lon="-1.33379">
        <ele>20</ele>
        <time>2021-05-02T18:50:32Z</time>
      </trkpt>
      <trkpt lat="46.53825" lon="-1.33495">
        <ele>19</ele>
        <time>2021-05-02T18:53:00Z</time>
      </trkpt>
      <trkpt lat="46.5379" lon="-1.33516">
        <ele>19</ele>
        <time>2021-05-02T18:53:51Z</time>
      </trkpt>
      <trkpt lat="46.53729" lon="-1.33532">
        <ele>22</ele>
        <time>2021-05-02T18:55:14Z</time>
      </trkpt>
      <trkpt lat="46.5363" lon="-1.33454">
        <ele>17</ele>
        <time>2021-05-02T18:57:44Z</time>
      </trkpt>
      <trkpt lat="46.53606" lon="-1.33443">
        <ele>18</ele>
        <time>2021-05-02T18:58:18Z</time>
      </trkpt>
      <trkpt lat="46.53588" lon="-1.33441">
        <ele>20</ele>
        <time>2021-05-02T18:58:42Z</time>
      </trkpt>
      <trkpt lat="46.53565" lon="-1.33463">
        <ele>22</ele>
        <time>2021-05-02T18:59:18Z</time>
      </trkpt>
      <trkpt lat="46.53534" lon="-1.33453">
        <ele>23</ele>
        <time>2021-05-02T19:00:01Z</time>
      </trkpt>
      <trkpt lat="46.53521" lon="-1.33465">
        <ele>23</ele>
        <time>2021-05-02T19:00:21Z</time>
      </trkpt>
      <trkpt lat="46.53491" lon="-1.33539">
        <ele>23</ele>
        <time>2021-05-02T19:01:40Z</time>
      </trkpt>
      <trkpt lat="46.53477" lon="-1.3356">
        <ele>25</ele>
        <time>2021-05-02T19:02:07Z</time>
      </trkpt>
      <trkpt lat="46.53467" lon="-1.33553">
        <ele>26</ele>
        <time>2021-05-02T19:02:22Z</time>
      </trkpt>
      <trkpt lat="46.5346" lon="-1.33532">
        <ele>27</ele>
        <time>2021-05-02T19:02:43Z</time>
      </trkpt>
      <trkpt lat="46.53452" lon="-1.33528">
        <ele>28</ele>
        <time>2021-05-02T19:02:55Z</time>
      </trkpt>
      <trkpt lat="46.53387" lon="-1.3353">
        <ele>38</ele>
        <time>2021-05-02T19:04:21Z</time>
      </trkpt>
      <trkpt lat="46.53362" lon="-1.33542">
        <ele>41</ele>
        <time>2021-05-02T19:04:56Z</time>
      </trkpt>
      <trkpt lat="46.53351" lon="-1.33553">
        <ele>42</ele>
        <time>2021-05-02T19:05:14Z</time>
      </trkpt>
      <trkpt lat="46.53365" lon="-1.33598">
        <ele>36</ele>
        <time>2021-05-02T19:06:00Z</time>
      </trkpt>
      <trkpt lat="46.53362" lon="-1.33622">
        <ele>34</ele>
        <time>2021-05-02T19:06:22Z</time>
      </trkpt>
      <trkpt lat="46.53325" lon="-1.33703">
        <ele>33</ele>
        <time>2021-05-02T19:07:51Z</time>
      </trkpt>
      <trkpt lat="46.53275" lon="-1.33749">
        <ele>37</ele>
        <time>2021-05-02T19:09:10Z</time>
      </trkpt>
      <trkpt lat="46.53264" lon="-1.33762">
        <ele>37</ele>
        <time>2021-05-02T19:09:29Z</time>
      </trkpt>
      <trkpt lat="46.53253" lon="-1.33783">
        <ele>38</ele>
        <time>2021-05-02T19:09:53Z</time>
      </trkpt>
      <trkpt lat="46.53249" lon="-1.33809">
        <ele>37</ele>
        <time>2021-05-02T19:10:18Z</time>
      </trkpt>
      <trkpt lat="46.53247" lon="-1.33825">
        <ele>37</ele>
        <time>2021-05-02T19:10:33Z</time>
      </trkpt>
      <trkpt lat="46.5328" lon="-1.33942">
        <ele>37</ele>
        <time>2021-05-02T19:12:29Z</time>
      </trkpt>
      <trkpt lat="46.53279" lon="-1.33989">
        <ele>38</ele>
        <time>2021-05-02T19:13:12Z</time>
      </trkpt>
      <trkpt lat="46.53253" lon="-1.3422">
        <ele>34</ele>
        <time>2021-05-02T19:16:47Z</time>
      </trkpt>
      <trkpt lat="46.53291" lon="-1.34219">
        <ele>37</ele>
        <time>2021-05-02T19:17:38Z</time>
      </trkpt>
      <trkpt lat="46.53312" lon="-1.34222">
        <ele>39</ele>
        <time>2021-05-02T19:18:06Z</time>
      </trkpt>
      <trkpt lat="46.5332" lon="-1.34208">
        <ele>39</ele>
        <time>2021-05-02T19:18:22Z</time>
      </trkpt>
      <trkpt lat="46.53334" lon="-1.34208">
        <ele>40</ele>
        <time>2021-05-02T19:18:41Z</time>
      </trkpt>
      <trkpt lat="46.5336" lon="-1.34166">
        <ele>42</ele>
        <time>2021-05-02T19:19:33Z</time>
      </trkpt>
      <trkpt lat="46.53377" lon="-1.34117">
        <ele>44</ele>
        <time>2021-05-02T19:20:23Z</time>
      </trkpt>
      <trkpt lat="46.53387" lon="-1.34099">
        <ele>45</ele>
        <time>2021-05-02T19:20:45Z</time>
      </trkpt>
      <trkpt lat="46.53378" lon="-1.34016">
        <ele>41</ele>
        <time>2021-05-02T19:22:02Z</time>
      </trkpt>
      <trkpt lat="46.53369" lon="-1.33975">
        <ele>40</ele>
        <time>2021-05-02T19:22:41Z</time>
      </trkpt>
      <trkpt lat="46.5337" lon="-1.33925">
        <ele>41</ele>
        <time>2021-05-02T19:23:27Z</time>
      </trkpt>
      <trkpt lat="46.53355" lon="-1.33897">
        <ele>39</ele>
        <time>2021-05-02T19:24:00Z</time>
      </trkpt>
      <trkpt lat="46.53342" lon="-1.33881">
        <ele>37</ele>
        <time>2021-05-02T19:24:23Z</time>
      </trkpt>
      <trkpt lat="46.53327" lon="-1.33872">
        <ele>36</ele>
        <time>2021-05-02T19:24:44Z</time>
      </trkpt>
      <trkpt lat="46.53315" lon="-1.33872">
        <ele>36</ele>
        <time>2021-05-02T19:25:00Z</time>
      </trkpt>
      <trkpt lat="46.53312" lon="-1.3388">
        <ele>36</ele>
        <time>2021-05-02T19:25:09Z</time>
      </trkpt>
      <trkpt lat="46.53313" lon="-1.33861">
        <ele>36</ele>
        <time>2021-05-02T19:25:26Z</time>
      </trkpt>
      <trkpt lat="46.53326" lon="-1.33879">
        <ele>36</ele>
        <time>2021-05-02T19:25:50Z</time>
      </trkpt>
      <trkpt lat="46.53328" lon="-1.33894">
        <ele>36</ele>
        <time>2021-05-02T19:26:04Z</time>
      </trkpt>
      <trkpt lat="46.53317" lon="-1.33896">
        <ele>36</ele>
        <time>2021-05-02T19:26:19Z</time>
      </trkpt>
      <trkpt lat="46.53308" lon="-1.33887">
        <ele>36</ele>
        <time>2021-05-02T19:26:33Z</time>
      </trkpt>
      <trkpt lat="46.5329" lon="-1.3389">
        <ele>36</ele>
        <time>2021-05-02T19:26:58Z</time>
      </trkpt>
      <trkpt lat="46.53277" lon="-1.33866">
        <ele>36</ele>
        <time>2021-05-02T19:27:26Z</time>
      </trkpt>
      <trkpt lat="46.53277" lon="-1.33802">
        <ele>36</ele>
        <time>2021-05-02T19:28:24Z</time>
      </trkpt>
      <trkpt lat="46.53308" lon="-1.33775">
        <ele>34</ele>
        <time>2021-05-02T19:29:13Z</time>
      </trkpt>
      <trkpt lat="46.53326" lon="-1.33742">
        <ele>32</ele>
        <time>2021-05-02T19:29:51Z</time>
      </trkpt>
      <trkpt lat="46.53385" lon="-1.33699">
        <ele>32</ele>
        <time>2021-05-02T19:31:19Z</time>
      </trkpt>
      <trkpt lat="46.53416" lon="-1.33673">
        <ele>28</ele>
        <time>2021-05-02T19:32:07Z</time>
      </trkpt>
      <trkpt lat="46.53495" lon="-1.33618">
        <ele>29</ele>
        <time>2021-05-02T19:34:04Z</time>
      </trkpt>
      <trkpt lat="46.53527" lon="-1.33555">
        <ele>25</ele>
        <time>2021-05-02T19:35:16Z</time>
      </trkpt>
      <trkpt lat="46.53548" lon="-1.33498">
        <ele>23</ele>
        <time>2021-05-02T19:36:15Z</time>
      </trkpt>
      <trkpt lat="46.53567" lon="-1.33469">
        <ele>22</ele>
        <time>2021-05-02T19:36:52Z</time>
      </trkpt>
      <trkpt lat="46.53577" lon="-1.33459">
        <ele>21</ele>
        <time>2021-05-02T19:37:08Z</time>
      </trkpt>
      <trkpt lat="46.53602" lon="-1.33452">
        <ele>19</ele>
        <time>2021-05-02T19:37:42Z</time>
      </trkpt>
      <trkpt lat="46.53638" lon="-1.33472">
        <ele>18</ele>
        <time>2021-05-02T19:38:34Z</time>
      </trkpt>
      <trkpt lat="46.53722" lon="-1.33539">
        <ele>24</ele>
        <time>2021-05-02T19:40:41Z</time>
      </trkpt>
      <trkpt lat="46.53736" lon="-1.33545">
        <ele>24</ele>
        <time>2021-05-02T19:41:01Z</time>
      </trkpt>
      <trkpt lat="46.53828" lon="-1.3351">
        <ele>21</ele>
        <time>2021-05-02T19:43:08Z</time>
      </trkpt>
      <trkpt lat="46.53911" lon="-1.33382">
        <ele>21</ele>
        <time>2021-05-02T19:45:49Z</time>
      </trkpt>
      <trkpt lat="46.53953" lon="-1.33324">
        <ele>23</ele>
        <time>2021-05-02T19:47:07Z</time>
      </trkpt>
      <trkpt lat="46.5401" lon="-1.33215">
        <ele>19</ele>
        <time>2021-05-02T19:49:12Z</time>
      </trkpt>
      <trkpt lat="46.54036" lon="-1.33176">
        <ele>15</ele>
        <time>2021-05-02T19:50:02Z</time>
      </trkpt>
      <trkpt lat="46.54076" lon="-1.33152">
        <ele>16</ele>
        <time>2021-05-02T19:51:00Z</time>
      </trkpt>
      <trkpt lat="46.54102" lon="-1.33155">
        <ele>16</ele>
        <time>2021-05-02T19:51:35Z</time>
      </trkpt>
      <trkpt lat="46.54133" lon="-1.33171">
        <ele>16</ele>
        <time>2021-05-02T19:52:19Z</time>
      </trkpt>
      <trkpt lat="46.54194" lon="-1.33246">
        <ele>20</ele>
        <time>2021-05-02T19:54:05Z</time>
      </trkpt>
      <trkpt lat="46.5422" lon="-1.33269">
        <ele>20</ele>
        <time>2021-05-02T19:54:46Z</time>
      </trkpt>
      <trkpt lat="46.54269" lon="-1.33291">
        <ele>20</ele>
        <time>2021-05-02T19:55:54Z</time>
      </trkpt>
      <trkpt lat="46.54339" lon="-1.33332">
        <ele>26</ele>
        <time>2021-05-02T19:57:35Z</time>
      </trkpt>
      <trkpt lat="46.54357" lon="-1.33331">
        <ele>25</ele>
        <time>2021-05-02T19:57:59Z</time>
      </trkpt>
      <trkpt lat="46.54368" lon="-1.33325">
        <ele>23</ele>
        <time>2021-05-02T19:58:15Z</time>
      </trkpt>
      <trkpt lat="46.54377" lon="-1.33329">
        <ele>23</ele>
        <time>2021-05-02T19:58:27Z</time>
      </trkpt>
      <trkpt lat="46.54385" lon="-1.33343">
        <ele>24</ele>
        <time>2021-05-02T19:58:44Z</time>
      </trkpt>
      <trkpt lat="46.54388" lon="-1.3337">
        <ele>26</ele>
        <time>2021-05-02T19:59:09Z</time>
      </trkpt>
      <trkpt lat="46.54397" lon="-1.33376">
        <ele>26</ele>
        <time>2021-05-02T19:59:22Z</time>
      </trkpt>
      <trkpt lat="46.54411" lon="-1.33364">
        <ele>25</ele>
        <time>2021-05-02T19:59:44Z</time>
      </trkpt>
      <trkpt lat="46.5439" lon="-1.33384">
        <ele>27</ele>
        <time>2021-05-02T20:00:17Z</time>
      </trkpt>
      <trkpt lat="46.54386" lon="-1.33406">
        <ele>29</ele>
        <time>2021-05-02T20:00:38Z</time>
      </trkpt>
      <trkpt lat="46.54378" lon="-1.33411">
        <ele>30</ele>
        <time>2021-05-02T20:00:50Z</time>
      </trkpt>
      <trkpt lat="46.54411" lon="-1.33547">
        <ele>38</ele>
        <time>2021-05-02T20:03:02Z</time>
      </trkpt>
      <trkpt lat="46.54434" lon="-1.33593">
        <ele>37</ele>
        <time>2021-05-02T20:03:55Z</time>
      </trkpt>
      <trkpt lat="46.54447" lon="-1.33629">
        <ele>35</ele>
        <time>2021-05-02T20:04:32Z</time>
      </trkpt>
      <trkpt lat="46.54436" lon="-1.33664">
        <ele>36</ele>
        <time>2021-05-02T20:05:07Z</time>
      </trkpt>
      <trkpt lat="46.54449" lon="-1.33719">
        <ele>36</ele>
        <time>2021-05-02T20:06:01Z</time>
      </trkpt>
      <trkpt lat="46.54456" lon="-1.33729">
        <ele>36</ele>
        <time>2021-05-02T20:06:14Z</time>
      </trkpt>
      <trkpt lat="46.54465" lon="-1.33733">
        <ele>36</ele>
        <time>2021-05-02T20:06:26Z</time>
      </trkpt>
      <trkpt lat="46.54468" lon="-1.33748">
        <ele>37</ele>
        <time>2021-05-02T20:06:41Z</time>
      </trkpt>
      <trkpt lat="46.54455" lon="-1.33766">
        <ele>36</ele>
        <time>2021-05-02T20:07:04Z</time>
      </trkpt>
      <trkpt lat="46.54441" lon="-1.33804">
        <ele>35</ele>
        <time>2021-05-02T20:07:44Z</time>
      </trkpt>
      <trkpt lat="46.54454" lon="-1.33815">
        <ele>36</ele>
        <time>2021-05-02T20:08:04Z</time>
      </trkpt>
      <trkpt lat="46.54489" lon="-1.33854">
        <ele>37</ele>
        <time>2021-05-02T20:09:03Z</time>
      </trkpt>
      <trkpt lat="46.54506" lon="-1.33851">
        <ele>37</ele>
        <time>2021-05-02T20:09:26Z</time>
      </trkpt>
      <trkpt lat="46.54527" lon="-1.33842">
        <ele>35</ele>
        <time>2021-05-02T20:09:55Z</time>
      </trkpt>
      <trkpt lat="46.54544" lon="-1.33855">
        <ele>34</ele>
        <time>2021-05-02T20:10:21Z</time>
      </trkpt>
      <trkpt lat="46.54592" lon="-1.33906">
        <ele>30</ele>
        <time>2021-05-02T20:11:40Z</time>
      </trkpt>
      <trkpt lat="46.54607" lon="-1.33942">
        <ele>28</ele>
        <time>2021-05-02T20:12:19Z</time>
      </trkpt>
      <trkpt lat="46.5461" lon="-1.33964">
        <ele>28</ele>
        <time>2021-05-02T20:12:39Z</time>
      </trkpt>
      <trkpt lat="46.54619" lon="-1.33984">
        <ele>28</ele>
        <time>2021-05-02T20:13:01Z</time>
      </trkpt>
      <trkpt lat="46.54638" lon="-1.34008">
        <ele>28</ele>
        <time>2021-05-02T20:13:35Z</time>
      </trkpt>
      <trkpt lat="46.54653" lon="-1.34034">
        <ele>29</ele>
        <time>2021-05-02T20:14:06Z</time>
      </trkpt>
      <trkpt lat="46.5468" lon="-1.34058">
        <ele>29</ele>
        <time>2021-05-02T20:14:48Z</time>
      </trkpt>
      <trkpt lat="46.54693" lon="-1.34065">
        <ele>28</ele>
        <time>2021-05-02T20:15:07Z</time>
      </trkpt>
      <trkpt lat="46.54734" lon="-1.34104">
        <ele>25</ele>
        <time>2021-05-02T20:16:12Z</time>
      </trkpt>
      <trkpt lat="46.54788" lon="-1.34124">
        <ele>23</ele>
        <time>2021-05-02T20:17:26Z</time>
      </trkpt>
      <trkpt lat="46.54855" lon="-1.34172">
        <ele>24</ele>
        <time>2021-05-02T20:19:06Z</time>
      </trkpt>
      <trkpt lat="46.54892" lon="-1.34205">
        <ele>27</ele>
        <time>2021-05-02T20:20:04Z</time>
      </trkpt>
      <trkpt lat="46.54917" lon="-1.34215">
        <ele>28</ele>
        <time>2021-05-02T20:20:39Z</time>
      </trkpt>
      <trkpt lat="46.5496" lon="-1.34218">
        <ele>29</ele>
        <time>2021-05-02T20:21:36Z</time>
      </trkpt>
      <trkpt lat="46.55011" lon="-1.34212">
        <ele>29</ele>
        <time>2021-05-02T20:22:44Z</time>
      </trkpt>
      <trkpt lat="46.55105" lon="-1.34197">
        <ele>26</ele>
        <time>2021-05-02T20:24:50Z</time>
      </trkpt>
      <trkpt lat="46.55154" lon="-1.34178">
        <ele>24</ele>
        <time>2021-05-02T20:25:58Z</time>
      </trkpt>
      <trkpt lat="46.55196" lon="-1.34172">
        <ele>23</ele>
        <time>2021-05-02T20:26:54Z</time>
      </trkpt>
      <trkpt lat="46.5522" lon="-1.34175">
        <ele>23</ele>
        <time>2021-05-02T20:27:27Z</time>
      </trkpt>
      <trkpt lat="46.55352" lon="-1.34267">
        <ele>27</ele>
        <time>2021-05-02T20:30:42Z</time>
      </trkpt>
      <trkpt lat="46.55389" lon="-1.34289">
        <ele>29</ele>
        <time>2021-05-02T20:31:35Z</time>
      </trkpt>
      <trkpt lat="46.55418" lon="-1.34299">
        <ele>28</ele>
        <time>2021-05-02T20:32:15Z</time>
      </trkpt>
      <trkpt lat="46.55447" lon="-1.34324">
        <ele>27</ele>
        <time>2021-05-02T20:33:00Z</time>
      </trkpt>
      <trkpt lat="46.5549" lon="-1.34352">
        <ele>25</ele>
        <time>2021-05-02T20:34:03Z</time>
      </trkpt>
      <trkpt lat="46.55509" lon="-1.3438">
        <ele>27</ele>
        <time>2021-05-02T20:34:39Z</time>
      </trkpt>
      <trkpt lat="46.55534" lon="-1.34396">
        <ele>27</ele>
        <time>2021-05-02T20:35:15Z</time>
      </trkpt>
      <trkpt lat="46.55578" lon="-1.34413">
        <ele>24</ele>
        <time>2021-05-02T20:36:16Z</time>
      </trkpt>
      <trkpt lat="46.55579" lon="-1.34515">
        <ele>29</ele>
        <time>2021-05-02T20:37:50Z</time>
      </trkpt>
      <trkpt lat="46.55586" lon="-1.34529">
        <ele>29</ele>
        <time>2021-05-02T20:38:06Z</time>
      </trkpt>
      <trkpt lat="46.55629" lon="-1.34566">
        <ele>30</ele>
        <time>2021-05-02T20:39:12Z</time>
      </trkpt>
      <trkpt lat="46.5565" lon="-1.3459">
        <ele>30</ele>
        <time>2021-05-02T20:39:48Z</time>
      </trkpt>
      <trkpt lat="46.55683" lon="-1.34609">
        <ele>30</ele>
        <time>2021-05-02T20:40:35Z</time>
      </trkpt>
      <trkpt lat="46.55804" lon="-1.34725">
        <ele>29</ele>
        <time>2021-05-02T20:43:49Z</time>
      </trkpt>
      <trkpt lat="46.55868" lon="-1.34778">
        <ele>27</ele>
        <time>2021-05-02T20:45:27Z</time>
      </trkpt>
      <trkpt lat="46.55866" lon="-1.34792">
        <ele>27</ele>
        <time>2021-05-02T20:45:40Z</time>
      </trkpt>
      <trkpt lat="46.5587" lon="-1.34832">
        <ele>26</ele>
        <time>2021-05-02T20:46:17Z</time>
      </trkpt>
      <trkpt lat="46.55878" lon="-1.34857">
        <ele>27</ele>
        <time>2021-05-02T20:46:43Z</time>
      </trkpt>
      <trkpt lat="46.55876" lon="-1.34893">
        <ele>27</ele>
        <time>2021-05-02T20:47:16Z</time>
      </trkpt>
      <trkpt lat="46.55867" lon="-1.34926">
        <ele>29</ele>
        <time>2021-05-02T20:47:48Z</time>
      </trkpt>
      <trkpt lat="46.55857" lon="-1.34949">
        <ele>31</ele>
        <time>2021-05-02T20:48:13Z</time>
      </trkpt>
      <trkpt lat="46.55799" lon="-1.35022">
        <ele>37</ele>
        <time>2021-05-02T20:49:56Z</time>
      </trkpt>
      <trkpt lat="46.55771" lon="-1.35063">
        <ele>37</ele>
        <time>2021-05-02T20:50:49Z</time>
      </trkpt>
      <trkpt lat="46.55797" lon="-1.35076">
        <ele>39</ele>
        <time>2021-05-02T20:51:25Z</time>
      </trkpt>
      <trkpt lat="46.55894" lon="-1.35163">
        <ele>44</ele>
        <time>2021-05-02T20:53:57Z</time>
      </trkpt>
      <trkpt lat="46.55936" lon="-1.35222">
        <ele>45</ele>
        <time>2021-05-02T20:55:15Z</time>
      </trkpt>
      <trkpt lat="46.55962" lon="-1.35268">
        <ele>47</ele>
        <time>2021-05-02T20:56:10Z</time>
      </trkpt>
      <trkpt lat="46.56019" lon="-1.35389">
        <ele>50</ele>
        <time>2021-05-02T20:58:25Z</time>
      </trkpt>
      <trkpt lat="46.56025" lon="-1.35412">
        <ele>51</ele>
        <time>2021-05-02T20:58:47Z</time>
      </trkpt>
      <trkpt lat="46.56029" lon="-1.35492">
        <ele>52</ele>
        <time>2021-05-02T21:00:01Z</time>
      </trkpt>
      <trkpt lat="46.56034" lon="-1.35515">
        <ele>53</ele>
        <time>2021-05-02T21:00:23Z</time>
      </trkpt>
      <trkpt lat="46.56073" lon="-1.35634">
        <ele>58</ele>
        <time>2021-05-02T21:02:24Z</time>
      </trkpt>
      <trkpt lat="46.56085" lon="-1.35656">
        <ele>59</ele>
        <time>2021-05-02T21:02:50Z</time>
      </trkpt>
      <trkpt lat="46.56148" lon="-1.35724">
        <ele>61</ele>
        <time>2021-05-02T21:04:34Z</time>
      </trkpt>
      <trkpt lat="46.56181" lon="-1.35776">
        <ele>62</ele>
        <time>2021-05-02T21:05:39Z</time>
      </trkpt>
      <trkpt lat="46.56281" lon="-1.35736">
        <ele>60</ele>
        <time>2021-05-02T21:07:58Z</time>
      </trkpt>
      <trkpt lat="46.56417" lon="-1.35638">
        <ele>50</ele>
        <time>2021-05-02T21:11:20Z</time>
      </trkpt>
      <trkpt lat="46.56476" lon="-1.35697">
        <ele>47</ele>
        <time>2021-05-02T21:12:56Z</time>
      </trkpt>
      <trkpt lat="46.5651" lon="-1.35719">
        <ele>46</ele>
        <time>2021-05-02T21:13:45Z</time>
      </trkpt>
      <trkpt lat="46.56535" lon="-1.35757">
        <ele>48</ele>
        <time>2021-05-02T21:14:34Z</time>
      </trkpt>
      <trkpt lat="46.56568" lon="-1.35681">
        <ele>47</ele>
        <time>2021-05-02T21:15:56Z</time>
      </trkpt>
      <trkpt lat="46.56623" lon="-1.35589">
        <ele>40</ele>
        <time>2021-05-02T21:17:48Z</time>
      </trkpt>
      <trkpt lat="46.56669" lon="-1.35467">
        <ele>36</ele>
        <time>2021-05-02T21:19:56Z</time>
      </trkpt>
      <trkpt lat="46.56684" lon="-1.35446">
        <ele>35</ele>
        <time>2021-05-02T21:20:23Z</time>
      </trkpt>
      <trkpt lat="46.56691" lon="-1.35452">
        <ele>34</ele>
        <time>2021-05-02T21:20:34Z</time>
      </trkpt>
      <trkpt lat="46.56723" lon="-1.35554">
        <ele>34</ele>
        <time>2021-05-02T21:22:17Z</time>
      </trkpt>
      <trkpt lat="46.56754" lon="-1.35582">
        <ele>32</ele>
        <time>2021-05-02T21:23:06Z</time>
      </trkpt>
      <trkpt lat="46.5677" lon="-1.3561">
        <ele>31</ele>
        <time>2021-05-02T21:23:39Z</time>
      </trkpt>
      <trkpt lat="46.56775" lon="-1.35608">
        <ele>31</ele>
        <time>2021-05-02T21:23:46Z</time>
      </trkpt>
      <trkpt lat="46.56775" lon="-1.35579">
        <ele>31</ele>
        <time>2021-05-02T21:24:13Z</time>
      </trkpt>
      <trkpt lat="46.56793" lon="-1.35565">
        <ele>30</ele>
        <time>2021-05-02T21:24:40Z</time>
      </trkpt>
      <trkpt lat="46.56786" lon="-1.35541">
        <ele>29</ele>
        <time>2021-05-02T21:25:04Z</time>
      </trkpt>
      <trkpt lat="46.56788" lon="-1.35504">
        <ele>29</ele>
        <time>2021-05-02T21:25:38Z</time>
      </trkpt>
      <trkpt lat="46.56769" lon="-1.35437">
        <ele>29</ele>
        <time>2021-05-02T21:26:44Z</time>
      </trkpt>
      <trkpt lat="46.5676" lon="-1.35387">
        <ele>29</ele>
        <time>2021-05-02T21:27:32Z</time>
      </trkpt>
      <trkpt lat="46.56746" lon="-1.35337">
        <ele>28</ele>
        <time>2021-05-02T21:28:21Z</time>
      </trkpt>
      <trkpt lat="46.56743" lon="-1.35307">
        <ele>28</ele>
        <time>2021-05-02T21:28:49Z</time>
      </trkpt>
      <trkpt lat="46.56745" lon="-1.35278">
        <ele>28</ele>
        <time>2021-05-02T21:29:16Z</time>
      </trkpt>
      <trkpt lat="46.56808" lon="-1.35217">
        <ele>30</ele>
        <time>2021-05-02T21:30:57Z</time>
      </trkpt>
      <trkpt lat="46.56823" lon="-1.35196">
        <ele>32</ele>
        <time>2021-05-02T21:31:25Z</time>
      </trkpt>
      <trkpt lat="46.56873" lon="-1.35104">
        <ele>37</ele>
        <time>2021-05-02T21:33:12Z</time>
      </trkpt>
      <trkpt lat="46.56923" lon="-1.35067">
        <ele>39</ele>
        <time>2021-05-02T21:34:27Z</time>
      </trkpt>
      <trkpt lat="46.57106" lon="-1.34991">
        <ele>37</ele>
        <time>2021-05-02T21:38:41Z</time>
      </trkpt>
      <trkpt lat="46.57148" lon="-1.34966">
        <ele>39</ele>
        <time>2021-05-02T21:39:42Z</time>
      </trkpt>
      <trkpt lat="46.57088" lon="-1.34886">
        <ele>37</ele>
        <time>2021-05-02T21:41:30Z</time>
      </trkpt>
      <trkpt lat="46.57088" lon="-1.34876">
        <ele>37</ele>
        <time>2021-05-02T21:41:39Z</time>
      </trkpt>
      <trkpt lat="46.57109" lon="-1.3484">
        <ele>37</ele>
        <time>2021-05-02T21:42:23Z</time>
      </trkpt>
      <trkpt lat="46.57168" lon="-1.34785">
        <ele>37</ele>
        <time>2021-05-02T21:43:56Z</time>
      </trkpt>
      <trkpt lat="46.57217" lon="-1.34746">
        <ele>38</ele>
        <time>2021-05-02T21:45:11Z</time>
      </trkpt>
      <trkpt lat="46.57202" lon="-1.34706">
        <ele>37</ele>
        <time>2021-05-02T21:45:53Z</time>
      </trkpt>
      <trkpt lat="46.57205" lon="-1.34686">
        <ele>37</ele>
        <time>2021-05-02T21:46:11Z</time>
      </trkpt>
      <trkpt lat="46.57213" lon="-1.34668">
        <ele>38</ele>
        <time>2021-05-02T21:46:31Z</time>
      </trkpt>
      <trkpt lat="46.57251" lon="-1.3461">
        <ele>41</ele>
        <time>2021-05-02T21:47:45Z</time>
      </trkpt>
      <trkpt lat="46.57288" lon="-1.34532">
        <ele>46</ele>
        <time>2021-05-02T21:49:12Z</time>
      </trkpt>
      <trkpt lat="46.57305" lon="-1.34514">
        <ele>47</ele>
        <time>2021-05-02T21:49:40Z</time>
      </trkpt>
      <trkpt lat="46.5735" lon="-1.3449">
        <ele>48</ele>
        <time>2021-05-02T21:50:44Z</time>
      </trkpt>
      <trkpt lat="46.57362" lon="-1.34477">
        <ele>48</ele>
        <time>2021-05-02T21:51:03Z</time>
      </trkpt>
      <trkpt lat="46.5734" lon="-1.34356">
        <ele>49</ele>
        <time>2021-05-02T21:52:58Z</time>
      </trkpt>
      <trkpt lat="46.57354" lon="-1.34342">
        <ele>49</ele>
        <time>2021-05-02T21:53:21Z</time>
      </trkpt>
      <trkpt lat="46.5736" lon="-1.3433">
        <ele>49</ele>
        <time>2021-05-02T21:53:35Z</time>
      </trkpt>
      <trkpt lat="46.57377" lon="-1.34275">
        <ele>49</ele>
        <time>2021-05-02T21:54:30Z</time>
      </trkpt>
      <trkpt lat="46.57421" lon="-1.34312">
        <ele>49</ele>
        <time>2021-05-02T21:55:38Z</time>
      </trkpt>
      <trkpt lat="46.57436" lon="-1.34312">
        <ele>49</ele>
        <time>2021-05-02T21:55:58Z</time>
      </trkpt>
      <trkpt lat="46.57437" lon="-1.34317">
        <ele>49</ele>
        <time>2021-05-02T21:56:03Z</time>
      </trkpt>
      <trkpt lat="46.57412" lon="-1.34394">
        <ele>47</ele>
        <time>2021-05-02T21:57:21Z</time>
      </trkpt>
      <trkpt lat="46.57413" lon="-1.34413">
        <ele>46</ele>
        <time>2021-05-02T21:57:38Z</time>
      </trkpt>
      <trkpt lat="46.57429" lon="-1.34452">
        <ele>46</ele>
        <time>2021-05-02T21:58:20Z</time>
      </trkpt>
      <trkpt lat="46.57409" lon="-1.34491">
        <ele>45</ele>
        <time>2021-05-02T21:59:04Z</time>
      </trkpt>
      <trkpt lat="46.57407" lon="-1.34511">
        <ele>45</ele>
        <time>2021-05-02T21:59:23Z</time>
      </trkpt>
      <trkpt lat="46.57409" lon="-1.3455">
        <ele>44</ele>
        <time>2021-05-02T21:59:59Z</time>
      </trkpt>
      <trkpt lat="46.57403" lon="-1.34568">
        <ele>44</ele>
        <time>2021-05-02T22:00:17Z</time>
      </trkpt>
      <trkpt lat="46.57414" lon="-1.3462">
        <ele>44</ele>
        <time>2021-05-02T22:01:07Z</time>
      </trkpt>
      <trkpt lat="46.57425" lon="-1.34643">
        <ele>44</ele>
        <time>2021-05-02T22:01:33Z</time>
      </trkpt>
      <trkpt lat="46.57437" lon="-1.34694">
        <ele>45</ele>
        <time>2021-05-02T22:02:22Z</time>
      </trkpt>
      <trkpt lat="46.57437" lon="-1.34704">
        <ele>45</ele>
        <time>2021-05-02T22:02:31Z</time>
      </trkpt>
      <trkpt lat="46.57421" lon="-1.3471">
        <ele>45</ele>
        <time>2021-05-02T22:02:53Z</time>
      </trkpt>
      <trkpt lat="46.57408" lon="-1.34708">
        <ele>45</ele>
        <time>2021-05-02T22:03:11Z</time>
      </trkpt>
      <trkpt lat="46.57396" lon="-1.34713">
        <ele>45</ele>
        <time>2021-05-02T22:03:28Z</time>
      </trkpt>
      <trkpt lat="46.57383" lon="-1.34726">
        <ele>44</ele>
        <time>2021-05-02T22:03:49Z</time>
      </trkpt>
      <trkpt lat="46.57365" lon="-1.34735">
        <ele>44</ele>
        <time>2021-05-02T22:04:14Z</time>
      </trkpt>
      <trkpt lat="46.57354" lon="-1.34745">
        <ele>44</ele>
        <time>2021-05-02T22:04:31Z</time>
      </trkpt>
      <trkpt lat="46.57351" lon="-1.34757">
        <ele>44</ele>
        <time>2021-05-02T22:04:43Z</time>
      </trkpt>
      <trkpt lat="46.57309" lon="-1.34825">
        <ele>44</ele>
        <time>2021-05-02T22:06:07Z</time>
      </trkpt>
      <trkpt lat="46.5725" lon="-1.34886">
        <ele>42</ele>
        <time>2021-05-02T22:07:44Z</time>
      </trkpt>
      <trkpt lat="46.57229" lon="-1.34899">
        <ele>42</ele>
        <time>2021-05-02T22:08:14Z</time>
      </trkpt>
      <trkpt lat="46.57185" lon="-1.34919">
        <ele>41</ele>
        <time>2021-05-02T22:09:15Z</time>
      </trkpt>
      <trkpt lat="46.57161" lon="-1.34942">
        <ele>39</ele>
        <time>2021-05-02T22:09:54Z</time>
      </trkpt>
      <trkpt lat="46.57146" lon="-1.34962">
        <ele>39</ele>
        <time>2021-05-02T22:10:21Z</time>
      </trkpt>
      <trkpt lat="46.57113" lon="-1.34984">
        <ele>37</ele>
        <time>2021-05-02T22:11:09Z</time>
      </trkpt>
      <trkpt lat="46.57043" lon="-1.35009">
        <ele>36</ele>
        <time>2021-05-02T22:12:46Z</time>
      </trkpt>
      <trkpt lat="46.56974" lon="-1.35043">
        <ele>36</ele>
        <time>2021-05-02T22:14:23Z</time>
      </trkpt>
      <trkpt lat="46.56931" lon="-1.35059">
        <ele>38</ele>
        <time>2021-05-02T22:15:22Z</time>
      </trkpt>
      <trkpt lat="46.5692" lon="-1.35066">
        <ele>39</ele>
        <time>2021-05-02T22:15:38Z</time>
      </trkpt>
      <trkpt lat="46.56874" lon="-1.35101">
        <ele>37</ele>
        <time>2021-05-02T22:16:47Z</time>
      </trkpt>
      <trkpt lat="46.5685" lon="-1.35141">
        <ele>35</ele>
        <time>2021-05-02T22:17:36Z</time>
      </trkpt>
      <trkpt lat="46.56819" lon="-1.35109">
        <ele>32</ele>
        <time>2021-05-02T22:18:27Z</time>
      </trkpt>
      <trkpt lat="46.56801" lon="-1.35109">
        <ele>31</ele>
        <time>2021-05-02T22:18:51Z</time>
      </trkpt>
      <trkpt lat="46.56793" lon="-1.35101">
        <ele>30</ele>
        <time>2021-05-02T22:19:04Z</time>
      </trkpt>
      <trkpt lat="46.56783" lon="-1.35083">
        <ele>30</ele>
        <time>2021-05-02T22:19:25Z</time>
      </trkpt>
      <trkpt lat="46.56756" lon="-1.35007">
        <ele>33</ele>
        <time>2021-05-02T22:20:43Z</time>
      </trkpt>
      <trkpt lat="46.56746" lon="-1.34998">
        <ele>33</ele>
        <time>2021-05-02T22:20:59Z</time>
      </trkpt>
      <trkpt lat="46.56735" lon="-1.34996">
        <ele>34</ele>
        <time>2021-05-02T22:21:14Z</time>
      </trkpt>
      <trkpt lat="46.56727" lon="-1.34983">
        <ele>35</ele>
        <time>2021-05-02T22:21:30Z</time>
      </trkpt>
      <trkpt lat="46.56725" lon="-1.3497">
        <ele>36</ele>
        <time>2021-05-02T22:21:42Z</time>
      </trkpt>
      <trkpt lat="46.56707" lon="-1.34962">
        <ele>38</ele>
        <time>2021-05-02T22:22:07Z</time>
      </trkpt>
      <trkpt lat="46.56675" lon="-1.34957">
        <ele>39</ele>
        <time>2021-05-02T22:22:50Z</time>
      </trkpt>
      <trkpt lat="46.56645" lon="-1.34966">
        <ele>38</ele>
        <time>2021-05-02T22:23:31Z</time>
      </trkpt>
      <trkpt lat="46.56635" lon="-1.34966">
        <ele>38</ele>
        <time>2021-05-02T22:23:44Z</time>
      </trkpt>
      <trkpt lat="46.56625" lon="-1.34961">
        <ele>38</ele>
        <time>2021-05-02T22:23:59Z</time>
      </trkpt>
      <trkpt lat="46.56547" lon="-1.34867">
        <ele>41</ele>
        <time>2021-05-02T22:26:14Z</time>
      </trkpt>
      <trkpt lat="46.56534" lon="-1.34856">
        <ele>41</ele>
        <time>2021-05-02T22:26:34Z</time>
      </trkpt>
      <trkpt lat="46.5646" lon="-1.34823">
        <ele>41</ele>
        <time>2021-05-02T22:28:17Z</time>
      </trkpt>
      <trkpt lat="46.56441" lon="-1.34798">
        <ele>41</ele>
        <time>2021-05-02T22:28:51Z</time>
      </trkpt>
      <trkpt lat="46.56406" lon="-1.34736">
        <ele>40</ele>
        <time>2021-05-02T22:30:05Z</time>
      </trkpt>
      <trkpt lat="46.56396" lon="-1.34724">
        <ele>40</ele>
        <time>2021-05-02T22:30:22Z</time>
      </trkpt>
      <trkpt lat="46.5639" lon="-1.34722">
        <ele>40</ele>
        <time>2021-05-02T22:30:30Z</time>
      </trkpt>
      <trkpt lat="46.56386" lon="-1.34722">
        <ele>40</ele>
        <time>2021-05-02T22:30:36Z</time>
      </trkpt>
      <trkpt lat="46.56371" lon="-1.34731">
        <ele>40</ele>
        <time>2021-05-02T22:30:57Z</time>
      </trkpt>
      <trkpt lat="46.56325" lon="-1.34777">
        <ele>39</ele>
        <time>2021-05-02T22:32:12Z</time>
      </trkpt>
      <trkpt lat="46.56288" lon="-1.34822">
        <ele>38</ele>
        <time>2021-05-02T22:33:16Z</time>
      </trkpt>
      <trkpt lat="46.56272" lon="-1.34847">
        <ele>37</ele>
        <time>2021-05-02T22:33:48Z</time>
      </trkpt>
      <trkpt lat="46.56264" lon="-1.34869">
        <ele>36</ele>
        <time>2021-05-02T22:34:10Z</time>
      </trkpt>
      <trkpt lat="46.56248" lon="-1.3494">
        <ele>33</ele>
        <time>2021-05-02T22:35:19Z</time>
      </trkpt>
      <trkpt lat="46.5624" lon="-1.34955">
        <ele>32</ele>
        <time>2021-05-02T22:35:36Z</time>
      </trkpt>
      <trkpt lat="46.56234" lon="-1.34961">
        <ele>32</ele>
        <time>2021-05-02T22:35:46Z</time>
      </trkpt>
      <trkpt lat="46.56205" lon="-1.34971">
        <ele>30</ele>
        <time>2021-05-02T22:36:26Z</time>
      </trkpt>
      <trkpt lat="46.56162" lon="-1.34974">
        <ele>27</ele>
        <time>2021-05-02T22:37:23Z</time>
      </trkpt>
      <trkpt lat="46.56138" lon="-1.34969">
        <ele>27</ele>
        <time>2021-05-02T22:37:56Z</time>
      </trkpt>
      <trkpt lat="46.56121" lon="-1.34962">
        <ele>27</ele>
        <time>2021-05-02T22:38:19Z</time>
      </trkpt>
      <trkpt lat="46.56075" lon="-1.34935">
        <ele>27</ele>
        <time>2021-05-02T22:39:25Z</time>
      </trkpt>
      <trkpt lat="46.56004" lon="-1.34867">
        <ele>26</ele>
        <time>2021-05-02T22:41:19Z</time>
      </trkpt>
      <trkpt lat="46.55953" lon="-1.34792">
        <ele>28</ele>
        <time>2021-05-02T22:42:56Z</time>
      </trkpt>
      <trkpt lat="46.5595" lon="-1.34782">
        <ele>28</ele>
        <time>2021-05-02T22:43:06Z</time>
      </trkpt>
      <trkpt lat="46.55955" lon="-1.3476">
        <ele>29</ele>
        <time>2021-05-02T22:43:27Z</time>
      </trkpt>
      <trkpt lat="46.55932" lon="-1.34743">
        <ele>30</ele>
        <time>2021-05-02T22:44:01Z</time>
      </trkpt>
      <trkpt lat="46.55903" lon="-1.34733">
        <ele>30</ele>
        <time>2021-05-02T22:44:41Z</time>
      </trkpt>
      <trkpt lat="46.55858" lon="-1.34698">
        <ele>29</ele>
        <time>2021-05-02T22:45:49Z</time>
      </trkpt>
      <trkpt lat="46.55851" lon="-1.34686">
        <ele>29</ele>
        <time>2021-05-02T22:46:04Z</time>
      </trkpt>
      <trkpt lat="46.55821" lon="-1.34604">
        <ele>32</ele>
        <time>2021-05-02T22:47:29Z</time>
      </trkpt>
      <trkpt lat="46.55776" lon="-1.34539">
        <ele>32</ele>
        <time>2021-05-02T22:48:54Z</time>
      </trkpt>
      <trkpt lat="46.55745" lon="-1.3447">
        <ele>32</ele>
        <time>2021-05-02T22:50:09Z</time>
      </trkpt>
      <trkpt lat="46.55745" lon="-1.34459">
        <ele>33</ele>
        <time>2021-05-02T22:50:19Z</time>
      </trkpt>
      <trkpt lat="46.55769" lon="-1.34411">
        <ele>36</ele>
        <time>2021-05-02T22:51:14Z</time>
      </trkpt>
      <trkpt lat="46.55769" lon="-1.34402">
        <ele>36</ele>
        <time>2021-05-02T22:51:22Z</time>
      </trkpt>
      <trkpt lat="46.55733" lon="-1.34333">
        <ele>34</ele>
        <time>2021-05-02T22:52:42Z</time>
      </trkpt>
      <trkpt lat="46.5572" lon="-1.34314">
        <ele>34</ele>
        <time>2021-05-02T22:53:06Z</time>
      </trkpt>
      <trkpt lat="46.55704" lon="-1.34298">
        <ele>34</ele>
        <time>2021-05-02T22:53:32Z</time>
      </trkpt>
      <trkpt lat="46.5569" lon="-1.34265">
        <ele>36</ele>
        <time>2021-05-02T22:54:08Z</time>
      </trkpt>
      <trkpt lat="46.55682" lon="-1.34268">
        <ele>35</ele>
        <time>2021-05-02T22:54:19Z</time>
      </trkpt>
      <trkpt lat="46.55639" lon="-1.34268">
        <ele>33</ele>
        <time>2021-05-02T22:55:16Z</time>
      </trkpt>
      <trkpt lat="46.5562" lon="-1.34262">
        <ele>32</ele>
        <time>2021-05-02T22:55:42Z</time>
      </trkpt>
      <trkpt lat="46.55609" lon="-1.34254">
        <ele>32</ele>
        <time>2021-05-02T22:55:58Z</time>
      </trkpt>
      <trkpt lat="46.55593" lon="-1.34235">
        <ele>33</ele>
        <time>2021-05-02T22:56:26Z</time>
      </trkpt>
      <trkpt lat="46.55585" lon="-1.34231">
        <ele>33</ele>
        <time>2021-05-02T22:56:37Z</time>
      </trkpt>
      <trkpt lat="46.55576" lon="-1.34234">
        <ele>33</ele>
        <time>2021-05-02T22:56:50Z</time>
      </trkpt>
      <trkpt lat="46.55543" lon="-1.34279">
        <ele>27</ele>
        <time>2021-05-02T22:57:50Z</time>
      </trkpt>
      <trkpt lat="46.55541" lon="-1.3428">
        <ele>27</ele>
        <time>2021-05-02T22:57:53Z</time>
      </trkpt>
      <trkpt lat="46.5553" lon="-1.34274">
        <ele>27</ele>
        <time>2021-05-02T22:58:08Z</time>
      </trkpt>
      <trkpt lat="46.55491" lon="-1.34227">
        <ele>30</ele>
        <time>2021-05-02T22:59:16Z</time>
      </trkpt>
      <trkpt lat="46.55448" lon="-1.34207">
        <ele>30</ele>
        <time>2021-05-02T23:00:16Z</time>
      </trkpt>
      <trkpt lat="46.55422" lon="-1.34203">
        <ele>30</ele>
        <time>2021-05-02T23:00:51Z</time>
      </trkpt>
      <trkpt lat="46.55395" lon="-1.34185">
        <ele>29</ele>
        <time>2021-05-02T23:01:31Z</time>
      </trkpt>
      <trkpt lat="46.55387" lon="-1.34168">
        <ele>29</ele>
        <time>2021-05-02T23:01:50Z</time>
      </trkpt>
      <trkpt lat="46.55386" lon="-1.34156">
        <ele>30</ele>
        <time>2021-05-02T23:02:01Z</time>
      </trkpt>
      <trkpt lat="46.55413" lon="-1.34104">
        <ele>36</ele>
        <time>2021-05-02T23:03:01Z</time>
      </trkpt>
      <trkpt lat="46.55414" lon="-1.34094">
        <ele>37</ele>
        <time>2021-05-02T23:03:10Z</time>
      </trkpt>
      <trkpt lat="46.55408" lon="-1.34083">
        <ele>37</ele>
        <time>2021-05-02T23:03:23Z</time>
      </trkpt>
      <trkpt lat="46.55392" lon="-1.3409">
        <ele>35</ele>
        <time>2021-05-02T23:03:45Z</time>
      </trkpt>
      <trkpt lat="46.55351" lon="-1.34116">
        <ele>30</ele>
        <time>2021-05-02T23:04:45Z</time>
      </trkpt>
      <trkpt lat="46.55329" lon="-1.34119">
        <ele>28</ele>
        <time>2021-05-02T23:05:14Z</time>
      </trkpt>
      <trkpt lat="46.55283" lon="-1.34114">
        <ele>29</ele>
        <time>2021-05-02T23:06:16Z</time>
      </trkpt>
      <trkpt lat="46.55225" lon="-1.34143">
        <ele>25</ele>
        <time>2021-05-02T23:07:38Z</time>
      </trkpt>
      <trkpt lat="46.55173" lon="-1.34139">
        <ele>25</ele>
        <time>2021-05-02T23:08:47Z</time>
      </trkpt>
      <trkpt lat="46.55135" lon="-1.34144">
        <ele>25</ele>
        <time>2021-05-02T23:09:38Z</time>
      </trkpt>
      <trkpt lat="46.55107" lon="-1.34155">
        <ele>24</ele>
        <time>2021-05-02T23:10:17Z</time>
      </trkpt>
      <trkpt lat="46.55092" lon="-1.34152">
        <ele>25</ele>
        <time>2021-05-02T23:10:37Z</time>
      </trkpt>
      <trkpt lat="46.55043" lon="-1.34156">
        <ele>26</ele>
        <time>2021-05-02T23:11:42Z</time>
      </trkpt>
      <trkpt lat="46.55021" lon="-1.3417">
        <ele>26</ele>
        <time>2021-05-02T23:12:14Z</time>
      </trkpt>
      <trkpt lat="46.54972" lon="-1.3417">
        <ele>25</ele>
        <time>2021-05-02T23:13:20Z</time>
      </trkpt>
      <trkpt lat="46.54914" lon="-1.34154">
        <ele>24</ele>
        <time>2021-05-02T23:14:39Z</time>
      </trkpt>
      <trkpt lat="46.54912" lon="-1.34145">
        <ele>24</ele>
        <time>2021-05-02T23:14:47Z</time>
      </trkpt>
      <trkpt lat="46.54908" lon="-1.3414">
        <ele>24</ele>
        <time>2021-05-02T23:14:54Z</time>
      </trkpt>
      <trkpt lat="46.54893" lon="-1.34134">
        <ele>24</ele>
        <time>2021-05-02T23:15:15Z</time>
      </trkpt>
      <trkpt lat="46.54888" lon="-1.34123">
        <ele>24</ele>
        <time>2021-05-02T23:15:27Z</time>
      </trkpt>
      <trkpt lat="46.54878" lon="-1.34113">
        <ele>24</ele>
        <time>2021-05-02T23:15:43Z</time>
      </trkpt>
      <trkpt lat="46.5484" lon="-1.34089">
        <ele>21</ele>
        <time>2021-05-02T23:16:39Z</time>
      </trkpt>
      <trkpt lat="46.54832" lon="-1.34078">
        <ele>20</ele>
        <time>2021-05-02T23:16:53Z</time>
      </trkpt>
      <trkpt lat="46.54796" lon="-1.34071">
        <ele>21</ele>
        <time>2021-05-02T23:17:42Z</time>
      </trkpt>
      <trkpt lat="46.54764" lon="-1.34057">
        <ele>21</ele>
        <time>2021-05-02T23:18:26Z</time>
      </trkpt>
      <trkpt lat="46.54753" lon="-1.34049">
        <ele>21</ele>
        <time>2021-05-02T23:18:43Z</time>
      </trkpt>
      <trkpt lat="46.54734" lon="-1.34025">
        <ele>22</ele>
        <time>2021-05-02T23:19:16Z</time>
      </trkpt>
      <trkpt lat="46.54725" lon="-1.33984">
        <ele>21</ele>
        <time>2021-05-02T23:19:56Z</time>
      </trkpt>
      <trkpt lat="46.54678" lon="-1.33923">
        <ele>20</ele>
        <time>2021-05-02T23:21:20Z</time>
      </trkpt>
      <trkpt lat="46.54667" lon="-1.33875">
        <ele>19</ele>
        <time>2021-05-02T23:22:06Z</time>
      </trkpt>
      <trkpt lat="46.54645" lon="-1.33837">
        <ele>22</ele>
        <time>2021-05-02T23:22:52Z</time>
      </trkpt>
      <trkpt lat="46.54648" lon="-1.33821">
        <ele>22</ele>
        <time>2021-05-02T23:23:07Z</time>
      </trkpt>
      <trkpt lat="46.54678" lon="-1.33776">
        <ele>21</ele>
        <time>2021-05-02T23:24:05Z</time>
      </trkpt>
      <trkpt lat="46.54683" lon="-1.33762">
        <ele>22</ele>
        <time>2021-05-02T23:24:19Z</time>
      </trkpt>
      <trkpt lat="46.54679" lon="-1.33743">
        <ele>22</ele>
        <time>2021-05-02T23:24:38Z</time>
      </trkpt>
      <trkpt lat="46.54662" lon="-1.33726">
        <ele>21</ele>
        <time>2021-05-02T23:25:05Z</time>
      </trkpt>
      <trkpt lat="46.54648" lon="-1.3369">
        <ele>23</ele>
        <time>2021-05-02T23:25:43Z</time>
      </trkpt>
      <trkpt lat="46.54631" lon="-1.3363">
        <ele>23</ele>
        <time>2021-05-02T23:26:43Z</time>
      </trkpt>
      <trkpt lat="46.54624" lon="-1.33626">
        <ele>23</ele>
        <time>2021-05-02T23:26:53Z</time>
      </trkpt>
      <trkpt lat="46.54609" lon="-1.33584">
        <ele>21</ele>
        <time>2021-05-02T23:27:36Z</time>
      </trkpt>
      <trkpt lat="46.5461" lon="-1.33557">
        <ele>21</ele>
        <time>2021-05-02T23:28:01Z</time>
      </trkpt>
      <trkpt lat="46.54587" lon="-1.33493">
        <ele>18</ele>
        <time>2021-05-02T23:29:07Z</time>
      </trkpt>
      <trkpt lat="46.54574" lon="-1.33479">
        <ele>19</ele>
        <time>2021-05-02T23:29:29Z</time>
      </trkpt>
      <trkpt lat="46.54572" lon="-1.33467">
        <ele>19</ele>
        <time>2021-05-02T23:29:40Z</time>
      </trkpt>
      <trkpt lat="46.54557" lon="-1.33425">
        <ele>19</ele>
        <time>2021-05-02T23:30:23Z</time>
      </trkpt>
      <trkpt lat="46.54547" lon="-1.33404">
        <ele>19</ele>
        <time>2021-05-02T23:30:47Z</time>
      </trkpt>
      <trkpt lat="46.54528" lon="-1.33376">
        <ele>18</ele>
        <time>2021-05-02T23:31:23Z</time>
      </trkpt>
      <trkpt lat="46.54522" lon="-1.3335">
        <ele>18</ele>
        <time>2021-05-02T23:31:48Z</time>
      </trkpt>
      <trkpt lat="46.54585" lon="-1.33388">
        <ele>24</ele>
        <time>2021-05-02T23:33:19Z</time>
      </trkpt>
      <trkpt lat="46.54605" lon="-1.33381">
        <ele>27</ele>
        <time>2021-05-02T23:33:47Z</time>
      </trkpt>
      <trkpt lat="46.54606" lon="-1.33351">
        <ele>29</ele>
        <time>2021-05-02T23:34:14Z</time>
      </trkpt>
    </trkseg>
  </trk>
</gpx>